Time;durP1;ratioP1;P1;durP2;ratioP2;P2;SDS_P1;SDS_P2;PMS_P1;PMS_P2;Temp;Humidity;BMP_temperature;BMP_pressure;BME280_temperature;BME280_humidity;BME280_pressure;Samples;Min_cycle;Max_cycle;Signal;HPM_P1;HPM_P2
2022/08/05 00:02:51;;;;;;;10.02;7.97;;;24.60;99.90;;;;;;4839933;29;20137;-93
2022/08/05 00:05:42;;;;;;;9.23;8.20;;;24.60;99.90;;;;;;4830228;29;20578;-93
2022/08/05 00:08:14;;;;;;;9.35;7.75;;;24.60;99.90;;;;;;4835644;29;20109;-92
2022/08/05 00:10:51;;;;;;;10.02;7.80;;;24.50;99.90;;;;;;4833835;29;20040;-92
2022/08/05 00:13:27;;;;;;;9.68;7.93;;;24.30;99.90;;;;;;4849584;29;20056;-94
2022/08/05 00:16:19;;;;;;;12.40;8.23;;;24.20;99.90;;;;;;4821391;29;20038;-93
2022/08/05 00:18:54;;;;;;;8.05;7.25;;;24.10;99.90;;;;;;4838560;29;20139;-94
2022/08/05 00:21:39;;;;;;;11.48;8.20;;;24.10;99.90;;;;;;4826240;29;20050;-94
2022/08/05 00:24:09;;;;;;;12.02;8.68;;;24.00;99.90;;;;;;4793075;29;20119;-95
2022/08/05 00:26:39;;;;;;;12.88;8.18;;;23.90;99.90;;;;;;4834230;29;20133;-94
2022/08/05 00:29:06;;;;;;;10.82;8.10;;;24.00;99.90;;;;;;4819685;29;20053;-93
2022/08/05 00:31:35;;;;;;;10.07;8.68;;;23.80;99.90;;;;;;4821216;29;20026;-93
2022/08/05 00:34:04;;;;;;;10.75;8.55;;;23.80;99.90;;;;;;4821371;29;20050;-93
2022/08/05 00:36:34;;;;;;;9.88;7.78;;;23.90;99.90;;;;;;4819013;29;20034;-94
2022/08/05 00:39:11;;;;;;;9.70;7.97;;;24.00;99.90;;;;;;4850866;29;20045;-93
2022/08/05 00:41:58;;;;;;;13.18;7.57;;;24.10;99.90;;;;;;4893027;29;20402;-93
2022/08/05 00:44:27;;;;;;;13.13;8.55;;;24.10;99.90;;;;;;4876994;29;20048;-92
2022/08/05 00:47:22;;;;;;;9.57;8.40;;;24.10;99.90;;;;;;4896489;29;20037;-95
2022/08/05 00:50:00;;;;;;;12.02;8.30;;;24.10;99.90;;;;;;4877106;29;20033;-93
2022/08/05 00:56:06;;;;;;;10.82;8.63;;;24.10;99.90;;;;;;4867513;29;20045;-94
2022/08/05 00:58:42;;;;;;;12.25;9.02;;;23.90;99.90;;;;;;4886354;29;20036;-96
2022/08/05 01:01:14;;;;;;;12.07;9.15;;;23.90;99.90;;;;;;4875332;29;20065;-93
2022/08/05 01:03:41;;;;;;;12.45;9.85;;;23.90;99.90;;;;;;4882143;29;20126;-92
2022/08/05 01:06:10;;;;;;;12.60;9.50;;;23.90;99.90;;;;;;4880996;29;20043;-94
2022/08/05 01:08:37;;;;;;;13.57;9.80;;;23.80;99.90;;;;;;4872303;29;20467;-93
2022/08/05 01:11:11;;;;;;;15.20;10.10;;;23.80;99.90;;;;;;4873148;29;20056;-92
2022/08/05 01:14:21;;;;;;;21.35;10.35;;;23.80;99.90;;;;;;4889577;29;20052;-93
2022/08/05 01:17:28;;;;;;;18.75;10.40;;;23.70;99.90;;;;;;4895341;29;20041;-94
2022/08/05 01:20:11;;;;;;;;;;;23.60;99.90;;;;;;4877984;29;20044;-95
2022/08/05 01:23:20;;;;;;;13.05;10.10;;;23.60;99.90;;;;;;4879194;29;19920;-92
2022/08/05 01:26:25;;;;;;;15.55;11.10;;;23.60;99.90;;;;;;4894889;29;20185;-91
2022/08/05 01:29:26;;;;;;;15.07;11.88;;;23.60;99.90;;;;;;4894120;29;20401;-93
2022/08/05 01:31:55;;;;;;;16.05;11.40;;;23.50;99.90;;;;;;4803015;29;20049;-93
2022/08/05 01:34:44;;;;;;;15.35;12.07;;;23.50;99.90;;;;;;4819589;29;20034;-92
2022/08/05 01:37:52;;;;;;;14.90;11.80;;;23.50;99.90;;;;;;4818965;29;20038;-93
2022/08/05 01:40:33;;;;;;;16.37;12.10;;;23.50;99.90;;;;;;4819570;29;20038;-93
2022/08/05 01:43:04;;;;;;;18.38;12.82;;;23.40;99.90;;;;;;4820192;29;20038;-93
2022/08/05 01:45:32;;;;;;;16.67;13.35;;;23.40;99.90;;;;;;4820903;29;20180;-93
2022/08/05 01:48:02;;;;;;;18.52;14.20;;;23.40;99.90;;;;;;4817807;29;20026;-93
2022/08/05 01:51:11;;;;;;;21.52;15.10;;;23.40;99.90;;;;;;4819810;29;20064;-94
2022/08/05 01:53:43;;;;;;;21.40;14.85;;;23.50;99.90;;;;;;4800754;29;20082;-94
2022/08/05 01:56:13;;;;;;;23.08;15.07;;;23.50;99.90;;;;;;4799936;29;20051;-92
2022/08/05 01:59:04;;;;;;;20.23;14.85;;;23.50;99.90;;;;;;4801541;29;20117;-94
2022/08/05 02:01:47;;;;;;;23.65;14.70;;;23.40;99.90;;;;;;4805490;29;20051;-92
2022/08/05 02:04:27;;;;;;;18.05;14.15;;;23.40;99.90;;;;;;4803880;29;20034;-93
2022/08/05 02:07:15;;;;;;;28.67;15.90;;;23.40;99.90;;;;;;4801263;29;20184;-92
2022/08/05 02:09:45;;;;;;;20.60;15.63;;;23.40;99.90;;;;;;4825128;29;20137;-92
2022/08/05 02:12:36;;;;;;;19.75;15.45;;;23.40;99.90;;;;;;4824872;29;20046;-93
2022/08/05 02:15:39;;;;;;;;;;;23.40;99.90;;;;;;4825485;29;20065;-94
2022/08/05 02:18:39;;;;;;;22.58;15.65;;;23.40;99.90;;;;;;4817065;29;20032;-92
2022/08/05 02:21:16;;;;;;;18.90;13.82;;;23.40;99.90;;;;;;4799277;29;20054;-94
2022/08/05 02:23:58;;;;;;;20.23;15.30;;;23.40;99.90;;;;;;4802396;29;20061;-93
2022/08/05 02:26:40;;;;;;;21.85;16.60;;;23.40;99.90;;;;;;4802248;29;20080;-93
2022/08/05 02:29:19;;;;;;;21.98;16.90;;;23.40;99.90;;;;;;4784541;29;20038;-93
2022/08/05 02:31:56;;;;;;;24.48;16.52;;;23.50;99.90;;;;;;4799699;29;20041;-92
2022/08/05 02:34:30;;;;;;;24.95;17.85;;;23.50;99.90;;;;;;4799023;29;20547;-94
2022/08/05 02:37:11;;;;;;;21.08;17.60;;;23.50;99.90;;;;;;4818457;29;20041;-93
2022/08/05 02:39:48;;;;;;;21.10;15.60;;;23.50;99.90;;;;;;4843668;29;20040;-92
2022/08/05 02:42:42;;;;;;;24.23;18.55;;;23.50;99.90;;;;;;4843456;29;20074;-95
2022/08/05 02:45:14;;;;;;;21.80;17.65;;;23.50;99.90;;;;;;4882578;23;20119;-93
2022/08/05 02:48:14;;;;;;;26.42;18.10;;;23.50;99.90;;;;;;4900872;29;20039;-92
2022/08/05 02:51:11;;;;;;;23.55;18.20;;;23.50;99.90;;;;;;4864259;29;20054;-92
2022/08/05 02:54:26;;;;;;;24.13;16.75;;;23.50;99.90;;;;;;4834012;29;20050;-93
2022/08/05 02:56:56;;;;;;;25.33;18.25;;;23.40;99.90;;;;;;4821935;29;20044;-92
2022/08/05 02:59:35;;;;;;;25.17;18.60;;;23.40;99.90;;;;;;4833293;29;20026;-93
2022/08/05 03:02:04;;;;;;;18.65;14.95;;;23.40;99.90;;;;;;4831719;29;20046;-93
2022/08/05 03:04:31;;;;;;;20.55;17.33;;;23.50;99.90;;;;;;4832788;29;20037;-93
2022/08/05 03:06:58;;;;;;;26.10;18.50;;;23.50;99.90;;;;;;4834260;29;20042;-93
2022/08/05 03:09:26;;;;;;;23.35;18.98;;;23.50;99.90;;;;;;4834341;29;20113;-93
2022/08/05 03:12:07;;;;;;;19.30;16.50;;;23.60;99.90;;;;;;4837022;29;20079;-94
2022/08/05 03:14:37;;;;;;;28.77;19.73;;;23.50;99.90;;;;;;4837747;29;20052;-94
2022/08/05 03:17:09;;;;;;;25.00;19.27;;;23.60;99.90;;;;;;4837607;29;20154;-92
2022/08/05 03:19:37;;;;;;;27.10;19.35;;;23.50;99.90;;;;;;4837628;29;20046;-92
2022/08/05 03:22:13;;;;;;;24.80;19.60;;;23.50;99.90;;;;;;4837940;29;20038;-94
2022/08/05 03:24:49;;;;;;;24.85;19.33;;;23.50;99.90;;;;;;4839994;29;20056;-93
2022/08/05 03:27:28;;;;;;;24.45;20.35;;;23.50;99.90;;;;;;4864481;29;20040;-93
2022/08/05 03:30:15;;;;;;;24.98;18.70;;;23.40;99.90;;;;;;4912191;29;20064;-93
2022/08/05 03:32:42;;;;;;;30.13;20.90;;;23.40;99.90;;;;;;4907938;29;20028;-94
2022/08/05 03:38:21;;;;;;;22.67;18.27;;;23.30;99.90;;;;;;5122810;23;20053;-92
2022/08/05 03:41:48;;;;;;;27.67;18.17;;;23.30;99.90;;;;;;4895269;29;20041;-93
2022/08/05 03:44:24;;;;;;;24.50;16.85;;;23.40;99.90;;;;;;4840331;29;20104;-96
2022/08/05 03:51:26;;;;;;;23.90;15.77;;;23.40;99.90;;;;;;4744960;30;20073;-93
2022/08/05 04:00:30;;;;;;;16.73;13.68;;;23.30;99.90;;;;;;4723731;30;20120;-93
2022/08/05 04:03:36;;;;;;;17.70;13.68;;;23.30;99.90;;;;;;4726024;30;20037;-94
2022/08/05 04:17:50;;;;;;;;;;;;;;;;;;;;;
2022/08/05 04:21:10;;;;;;;18.02;13.52;;;23.80;99.90;;;;;;4909310;29;20048;-93
2022/08/05 04:24:06;;;;;;;18.20;13.57;;;23.90;99.90;;;;;;4894129;29;20111;-92
2022/08/05 04:30:26;;;;;;;21.98;15.70;;;24.00;99.90;;;;;;4887580;29;20535;-94
2022/08/05 04:36:31;;;;;;;24.20;16.15;;;24.00;99.90;;;;;;4897412;29;20037;-92
2022/08/05 04:39:21;;;;;;;19.38;14.88;;;24.00;99.90;;;;;;4874172;29;20058;-93
2022/08/05 04:42:12;;;;;;;18.23;15.82;;;24.00;99.90;;;;;;4886419;29;20128;-93
2022/08/05 04:45:24;;;;;;;;;;;;;;;;;;;;;
2022/08/05 04:48:25;;;;;;;17.42;14.63;;;24.20;99.90;;;;;;4926896;23;20048;-94
2022/08/05 04:51:31;;;;;;;22.10;15.07;;;24.40;99.90;;;;;;4869190;29;20106;-93
2022/08/05 04:54:03;;;;;;;19.35;13.15;;;24.70;99.90;;;;;;4853811;29;20040;-93
2022/08/05 05:22:09;;;;;;;11.60;7.10;;;32.20;99.90;;;;;;5062040;23;20068;-92
2022/08/05 05:40:02;;;;;;;;;;;;;;;;;;;;;
2022/08/05 05:43:28;;;;;;;;;;;;;;;;;;;;;
2022/08/05 05:47:09;;;;;;;;;;;;;;;;;;;;;
2022/08/05 05:58:01;;;;;;;7.25;5.10;;;32.50;99.90;;;;;;4890539;29;20069;-92
2022/08/05 06:24:15;;;;;;;7.53;5.95;;;32.90;99.90;;;;;;5081522;23;20149;-94
2022/08/05 06:45:06;;;;;;;7.03;5.82;;;33.30;99.90;;;;;;4926747;29;20044;-93
2022/08/05 06:47:32;;;;;;;6.90;5.93;;;33.60;99.90;;;;;;4908555;29;20032;-93
2022/08/05 06:49:59;;;;;;;9.05;6.68;;;34.00;99.90;;;;;;4907106;29;20032;-92
2022/08/05 06:52:26;;;;;;;8.15;6.40;;;34.10;99.90;;;;;;4893608;29;20028;-92
2022/08/05 06:54:53;;;;;;;9.05;6.93;;;34.20;99.90;;;;;;4887243;29;20039;-94
2022/08/05 06:57:19;;;;;;;9.55;6.72;;;33.60;99.90;;;;;;4885393;29;20375;-90
2022/08/05 06:59:46;;;;;;;12.68;6.13;;;33.50;99.90;;;;;;4887077;29;20104;-92
2022/08/05 07:02:13;;;;;;;9.70;6.22;;;33.60;99.90;;;;;;4891433;29;20124;-92
2022/08/05 07:04:40;;;;;;;9.73;6.28;;;33.70;99.90;;;;;;4892432;29;20044;-90
2022/08/05 07:07:07;;;;;;;7.07;6.35;;;34.30;99.90;;;;;;4892693;29;20037;-91
2022/08/05 07:09:35;;;;;;;10.38;6.30;;;34.20;99.90;;;;;;4877915;29;20137;-90
2022/08/05 07:12:01;;;;;;;11.77;6.78;;;34.40;99.90;;;;;;4892783;29;20028;-90
2022/08/05 07:17:22;;;;;;;9.77;6.45;;;34.90;99.90;;;;;;4866986;29;20490;-91
2022/08/05 07:19:53;;;;;;;8.95;7.20;;;35.00;99.90;;;;;;4893600;29;20108;-91
2022/08/05 07:22:21;;;;;;;13.00;7.45;;;34.90;99.90;;;;;;4875459;29;20103;-92
2022/08/05 07:24:48;;;;;;;8.18;6.93;;;34.80;99.90;;;;;;4893592;29;20039;-93
2022/08/05 07:27:17;;;;;;;7.82;6.93;;;35.10;99.90;;;;;;4893463;29;20025;-94
2022/08/05 07:29:43;;;;;;;12.93;6.75;;;34.90;99.90;;;;;;4885856;29;20060;-94
2022/08/05 07:32:11;;;;;;;10.48;7.13;;;34.70;99.90;;;;;;4879795;29;20115;-92
2022/08/05 07:34:38;;;;;;;8.85;7.05;;;34.90;99.90;;;;;;4873883;29;20390;-92
2022/08/05 07:37:04;;;;;;;7.97;7.00;;;34.80;99.90;;;;;;4878545;29;20033;-92
2022/08/05 07:39:30;;;;;;;8.82;6.47;;;33.90;99.90;;;;;;4864805;29;20033;-93
2022/08/05 07:41:57;;;;;;;7.15;6.30;;;33.90;99.90;;;;;;4875740;29;20044;-91
2022/08/05 07:44:24;;;;;;;9.38;7.30;;;34.00;99.90;;;;;;4873353;29;20041;-92
2022/08/05 07:46:50;;;;;;;8.35;7.07;;;34.50;99.90;;;;;;4862086;29;20037;-92
2022/08/05 07:49:19;;;;;;;9.25;6.57;;;34.70;99.90;;;;;;4861644;29;20033;-92
2022/08/05 07:51:46;;;;;;;8.65;7.80;;;34.40;99.90;;;;;;4847255;29;20065;-91
2022/08/05 07:54:13;;;;;;;10.35;7.45;;;34.80;99.90;;;;;;4918724;23;20048;-91
2022/08/05 07:56:39;;;;;;;8.43;7.72;;;34.80;99.90;;;;;;4886701;29;20075;-93
2022/08/05 07:59:06;;;;;;;8.55;7.82;;;35.00;99.90;;;;;;4901713;29;20132;-92
2022/08/05 08:01:32;;;;;;;8.27;7.68;;;35.50;99.90;;;;;;4901474;29;20040;-92
2022/08/05 08:04:08;;;;;;;8.98;8.15;;;35.30;99.90;;;;;;4901597;29;20056;-93
2022/08/05 08:06:35;;;;;;;9.00;7.90;;;35.70;99.90;;;;;;4901610;29;20047;-91
2022/08/05 08:09:01;;;;;;;9.60;8.48;;;35.80;99.90;;;;;;4901953;29;20115;-91
2022/08/05 08:11:28;;;;;;;8.38;7.68;;;36.00;99.90;;;;;;4901761;29;20087;-91
2022/08/05 08:13:55;;;;;;;9.73;8.98;;;35.80;99.90;;;;;;4901639;29;20032;-90
2022/08/05 08:16:21;;;;;;;8.35;7.57;;;35.50;99.90;;;;;;4901491;29;20393;-91
2022/08/05 08:18:48;;;;;;;9.75;8.40;;;35.50;99.90;;;;;;4886756;29;20124;-90
2022/08/05 08:21:14;;;;;;;9.40;8.68;;;35.40;99.90;;;;;;4901469;29;20046;-92
2022/08/05 08:23:41;;;;;;;10.00;9.25;;;35.40;99.90;;;;;;4902058;29;20056;-91
2022/08/05 08:26:07;;;;;;;10.00;9.23;;;35.30;99.90;;;;;;4901128;29;20040;-91
2022/08/05 08:28:34;;;;;;;10.38;9.60;;;35.40;99.90;;;;;;4901391;29;20052;-91
2022/08/05 08:31:01;;;;;;;10.00;8.90;;;35.80;99.90;;;;;;4901837;29;20086;-91
2022/08/05 08:33:28;;;;;;;9.10;8.30;;;35.70;99.90;;;;;;4901084;29;20052;-90
2022/08/05 08:35:54;;;;;;;10.23;9.23;;;34.90;99.90;;;;;;4885756;29;20079;-91
2022/08/05 08:38:21;;;;;;;10.82;10.02;;;34.70;99.90;;;;;;4912032;29;20026;-92
2022/08/05 08:40:48;;;;;;;11.45;10.35;;;35.20;99.90;;;;;;4919787;29;20505;-90
2022/08/05 08:43:17;;;;;;;11.50;10.60;;;35.40;99.90;;;;;;4899459;29;20028;-92
2022/08/05 08:45:45;;;;;;;11.88;10.88;;;36.20;99.90;;;;;;4919766;29;20079;-91
2022/08/05 08:48:14;;;;;;;10.85;9.98;;;36.10;99.90;;;;;;4920092;29;20028;-90
2022/08/05 08:50:43;;;;;;;10.75;10.05;;;35.80;99.90;;;;;;4903732;29;20678;-91
2022/08/05 08:53:13;;;;;;;11.30;10.48;;;35.40;99.90;;;;;;4919986;29;20034;-93
2022/08/05 08:55:40;;;;;;;11.52;10.13;;;35.40;99.90;;;;;;4885601;29;20498;-91
2022/08/05 08:58:09;;;;;;;11.65;10.82;;;35.40;99.90;;;;;;4900967;29;20063;-93
2022/08/05 09:00:36;;;;;;;12.40;10.93;;;35.40;99.90;;;;;;4885369;29;20036;-92
2022/08/05 09:03:05;;;;;;;11.60;10.57;;;36.00;99.90;;;;;;4901650;29;20032;-92
2022/08/05 09:05:33;;;;;;;12.07;10.95;;;35.60;99.90;;;;;;4885986;29;20028;-91
2022/08/05 09:07:59;;;;;;;11.82;11.10;;;35.40;99.90;;;;;;4885696;29;20119;-91
2022/08/05 09:10:27;;;;;;;11.93;10.32;;;35.10;99.90;;;;;;4885346;29;20032;-89
2022/08/05 09:12:55;;;;;;;12.25;11.25;;;35.30;99.90;;;;;;4900917;29;20036;-91
2022/08/05 09:15:22;;;;;;;11.52;10.52;;;35.70;99.90;;;;;;4885389;29;20036;-92
2022/08/05 09:17:50;;;;;;;12.25;11.32;;;35.80;99.90;;;;;;4900919;29;20029;-92
2022/08/05 09:20:16;;;;;;;12.40;11.50;;;36.10;99.90;;;;;;4885344;29;20035;-91
2022/08/05 09:23:07;;;;;;;11.75;11.00;;;36.40;99.90;;;;;;4885453;29;20541;-91
2022/08/05 09:25:34;;;;;;;12.23;11.20;;;36.40;99.90;;;;;;4900988;29;20028;-93
2022/08/05 09:28:14;;;;;;;11.55;10.57;;;36.10;99.90;;;;;;4885163;29;20064;-91
2022/08/05 09:30:43;;;;;;;11.48;10.65;;;36.30;99.90;;;;;;4885362;29;20024;-92
2022/08/05 09:33:10;;;;;;;12.75;11.50;;;36.20;99.90;;;;;;4885303;29;20486;-92
2022/08/05 09:35:37;;;;;;;11.73;10.55;;;35.80;99.90;;;;;;4885535;29;20032;-92
2022/08/05 09:38:06;;;;;;;11.85;10.68;;;35.40;99.90;;;;;;4903439;29;20073;-92
2022/08/05 09:40:38;;;;;;;11.85;10.90;;;35.50;99.90;;;;;;4889097;29;20497;-92
2022/08/05 09:43:06;;;;;;;12.15;10.98;;;35.30;99.90;;;;;;4904341;29;20417;-92
2022/08/05 09:45:40;;;;;;;11.45;10.65;;;34.80;99.90;;;;;;4888808;29;20035;-93
2022/08/05 09:48:25;;;;;;;12.38;11.15;;;34.80;99.90;;;;;;4888650;29;20036;-93
2022/08/05 09:50:58;;;;;;;11.85;10.85;;;34.60;99.90;;;;;;4906127;29;20032;-92
2022/08/05 09:53:25;;;;;;;11.82;10.75;;;34.80;99.90;;;;;;4890629;29;20478;-93
2022/08/05 10:06:09;;;;;;;12.73;11.55;;;35.50;99.90;;;;;;5031056;23;20056;-93
2022/08/05 10:08:37;;;;;;;13.25;11.95;;;35.30;99.90;;;;;;4903931;29;20115;-92
2022/08/05 10:17:38;;;;;;;;;;;;;;;;;;;;;
2022/08/05 10:37:34;;;;;;;13.38;12.32;;;34.70;99.90;;;;;;5151623;23;20040;-94
2022/08/05 11:06:27;;;;;;;13.38;12.48;;;34.40;99.90;;;;;;4901722;29;20111;-92
2022/08/05 11:09:12;;;;;;;13.00;12.20;;;34.70;99.90;;;;;;4884468;29;20033;-94
2022/08/05 11:11:38;;;;;;;;;;;34.70;99.90;;;;;;4869172;29;20037;-92
2022/08/05 11:14:06;;;;;;;12.18;11.35;;;34.70;99.90;;;;;;4858068;29;19987;-92
2022/08/05 11:16:33;;;;;;;12.50;11.70;;;34.50;99.90;;;;;;4883077;29;20052;-91
2022/08/05 11:19:25;;;;;;;13.32;12.13;;;34.60;99.90;;;;;;4846866;29;20108;-91
2022/08/05 11:21:55;;;;;;;13.25;12.32;;;34.60;99.90;;;;;;4846518;29;20037;-93
2022/08/05 11:24:25;;;;;;;14.35;13.35;;;34.50;99.90;;;;;;4846730;29;20033;-94
2022/08/05 11:27:29;;;;;;;13.80;12.68;;;34.50;99.90;;;;;;4882105;29;20029;-93
2022/08/05 11:29:59;;;;;;;;;;;34.90;99.90;;;;;;4880823;29;20045;-92
2022/08/05 11:32:28;;;;;;;12.35;11.40;;;34.80;99.90;;;;;;4866180;29;19916;-94
2022/08/05 11:34:56;;;;;;;13.20;12.20;;;34.90;99.90;;;;;;4883526;29;20083;-92
2022/08/05 11:37:41;;;;;;;13.88;12.95;;;35.10;99.90;;;;;;4863625;29;20029;-92
2022/08/05 11:40:07;;;;;;;13.80;12.90;;;35.30;99.90;;;;;;4887396;29;20048;-93
2022/08/05 11:42:40;;;;;;;13.23;12.43;;;35.40;99.90;;;;;;4869021;29;20056;-94
2022/08/05 11:45:08;;;;;;;13.73;12.65;;;35.30;99.90;;;;;;4881791;29;20195;-94
2022/08/05 11:47:36;;;;;;;13.80;12.82;;;35.30;99.90;;;;;;4859570;29;20480;-93
2022/08/05 11:50:04;;;;;;;13.73;12.93;;;35.10;99.90;;;;;;4861553;29;20037;-93
2022/08/05 11:52:30;;;;;;;13.32;12.43;;;35.10;99.90;;;;;;4897357;29;20036;-93
2022/08/05 11:54:58;;;;;;;13.18;12.18;;;35.10;99.90;;;;;;4862611;29;20069;-93
2022/08/05 11:57:29;;;;;;;12.57;11.77;;;35.10;99.90;;;;;;4870941;29;20056;-92
2022/08/05 11:59:57;;;;;;;12.68;11.88;;;34.70;99.90;;;;;;4867658;29;20041;-91
2022/08/05 12:02:28;;;;;;;12.93;12.10;;;34.60;99.90;;;;;;4867122;29;20052;-93
2022/08/05 12:04:58;;;;;;;13.25;12.38;;;34.60;99.90;;;;;;4883216;29;20028;-94
2022/08/05 12:07:24;;;;;;;13.32;12.38;;;34.60;99.90;;;;;;4884474;29;20410;-92
2022/08/05 12:09:56;;;;;;;13.15;12.20;;;34.60;99.90;;;;;;4862399;29;20034;-93
2022/08/05 12:12:27;;;;;;;13.07;12.07;;;34.60;99.90;;;;;;4861212;29;20029;-91
2022/08/05 12:14:55;;;;;;;12.65;11.98;;;34.50;99.90;;;;;;4860932;29;20033;-91
2022/08/05 12:17:22;;;;;;;13.73;12.60;;;34.90;99.90;;;;;;4872705;29;20025;-90
2022/08/05 12:19:54;;;;;;;12.73;11.93;;;34.90;99.90;;;;;;4863960;29;20124;-89
2022/08/05 12:22:26;;;;;;;13.10;12.23;;;34.80;99.90;;;;;;4864069;29;20029;-89
2022/08/05 12:24:55;;;;;;;13.65;12.55;;;34.70;99.90;;;;;;4870840;29;20025;-90
2022/08/05 12:27:22;;;;;;;13.38;12.45;;;34.60;99.90;;;;;;4895028;29;20062;-89
2022/08/05 12:30:22;;;;;;;11.88;10.98;;;34.80;99.90;;;;;;4863546;29;20056;-90
2022/08/05 12:32:52;;;;;;;12.00;11.10;;;34.70;99.90;;;;;;4860830;29;20116;-90
2022/08/05 12:35:23;;;;;;;11.43;10.75;;;34.70;99.90;;;;;;4861187;29;20022;-90
2022/08/05 12:37:49;;;;;;;12.25;11.15;;;34.60;99.90;;;;;;4845592;29;20037;-90
2022/08/05 12:40:16;;;;;;;12.35;11.38;;;34.80;99.90;;;;;;4845378;29;20074;-90
2022/08/05 12:42:45;;;;;;;12.00;11.18;;;34.60;99.90;;;;;;4845459;29;20519;-90
2022/08/05 12:45:12;;;;;;;12.63;11.73;;;34.60;99.90;;;;;;4855708;29;20033;-91
2022/08/05 12:47:40;;;;;;;12.27;11.40;;;34.40;99.90;;;;;;4849054;29;20388;-93
2022/08/05 12:50:15;;;;;;;12.75;11.80;;;34.60;99.90;;;;;;4848358;29;20069;-94
2022/08/05 12:52:53;;;;;;;12.40;11.40;;;34.60;99.90;;;;;;4848291;29;20108;-92
2022/08/05 12:55:29;;;;;;;11.98;11.27;;;34.80;99.90;;;;;;4849450;29;20045;-94
2022/08/05 12:57:59;;;;;;;12.43;11.50;;;34.60;99.90;;;;;;4848505;29;20115;-92
2022/08/05 13:00:28;;;;;;;12.80;12.05;;;34.60;99.90;;;;;;4847839;29;20041;-92
2022/08/05 13:02:56;;;;;;;12.52;11.75;;;34.50;99.90;;;;;;4863677;29;20045;-93
2022/08/05 13:05:28;;;;;;;12.90;12.00;;;34.50;99.90;;;;;;4848158;29;20040;-91
2022/08/05 13:07:57;;;;;;;13.05;12.20;;;34.50;99.90;;;;;;4848361;29;20029;-92
2022/08/05 13:10:24;;;;;;;12.82;11.80;;;34.40;99.90;;;;;;4848175;29;20165;-91
2022/08/05 13:12:55;;;;;;;13.10;12.30;;;34.50;99.90;;;;;;4850627;29;20030;-93
2022/08/05 13:15:27;;;;;;;13.55;12.65;;;34.60;99.90;;;;;;4851816;29;20033;-91
2022/08/05 13:17:54;;;;;;;13.65;12.70;;;34.90;99.90;;;;;;4851926;29;20055;-92
2022/08/05 13:20:21;;;;;;;14.13;13.25;;;34.70;99.90;;;;;;4851515;29;20036;-93
2022/08/05 13:22:51;;;;;;;13.80;13.00;;;34.50;99.90;;;;;;4851753;29;20044;-92
2022/08/05 13:25:19;;;;;;;14.93;14.00;;;34.50;99.90;;;;;;4851874;29;20025;-93
2022/08/05 13:27:50;;;;;;;15.35;14.35;;;34.60;99.90;;;;;;4851985;29;20043;-92
2022/08/05 13:30:25;;;;;;;15.05;13.95;;;35.00;99.90;;;;;;4852180;29;20033;-92
2022/08/05 13:32:53;;;;;;;14.80;13.80;;;34.80;99.90;;;;;;4859194;29;20037;-95
2022/08/05 13:35:20;;;;;;;14.80;13.88;;;34.60;99.90;;;;;;4856952;29;20040;-93
2022/08/05 13:37:50;;;;;;;14.70;13.73;;;34.50;99.90;;;;;;4851788;29;20035;-94
2022/08/05 13:40:38;;;;;;;14.35;13.23;;;34.50;99.90;;;;;;4851350;29;20131;-92
2022/08/05 13:43:05;;;;;;;14.80;13.80;;;34.40;99.90;;;;;;4852416;29;20044;-93
2022/08/05 13:45:31;;;;;;;15.23;14.00;;;34.50;99.90;;;;;;4852535;29;20049;-93
2022/08/05 13:47:58;;;;;;;14.98;13.85;;;34.50;99.90;;;;;;4851685;29;20523;-93
2022/08/05 13:50:24;;;;;;;13.68;12.93;;;34.50;99.90;;;;;;4851608;29;20029;-92
2022/08/05 13:53:12;;;;;;;13.90;13.10;;;34.60;99.90;;;;;;4851719;29;20060;-93
2022/08/05 13:55:39;;;;;;;14.13;13.13;;;34.70;99.90;;;;;;4851361;29;20524;-94
2022/08/05 13:58:05;;;;;;;13.93;13.13;;;34.70;99.90;;;;;;4851528;29;20021;-92
2022/08/05 14:00:34;;;;;;;14.05;13.25;;;34.50;99.90;;;;;;4851211;29;20055;-93
2022/08/05 14:03:01;;;;;;;13.95;12.95;;;34.60;99.90;;;;;;4854802;29;20039;-92
2022/08/05 14:05:28;;;;;;;14.20;13.32;;;34.50;99.90;;;;;;4852490;29;20399;-94
2022/08/05 14:07:57;;;;;;;13.85;12.95;;;34.60;99.90;;;;;;4851295;29;20104;-93
2022/08/05 14:10:25;;;;;;;13.82;13.02;;;34.50;99.90;;;;;;4851055;29;20116;-93
2022/08/05 14:12:52;;;;;;;13.93;13.02;;;34.40;99.90;;;;;;4850915;29;20033;-93
2022/08/05 14:15:19;;;;;;;14.75;13.60;;;34.30;99.90;;;;;;4850972;29;20479;-93
2022/08/05 14:17:45;;;;;;;14.10;13.00;;;34.20;99.90;;;;;;4851045;29;20033;-93
2022/08/05 14:20:13;;;;;;;14.27;13.18;;;34.10;99.90;;;;;;4850804;29;20064;-93
2022/08/05 14:22:41;;;;;;;14.88;13.88;;;34.40;99.90;;;;;;4851049;29;20037;-92
2022/08/05 14:25:12;;;;;;;14.90;14.00;;;34.40;99.90;;;;;;4851146;29;20065;-91
2022/08/05 14:27:40;;;;;;;15.50;14.50;;;34.20;99.90;;;;;;4851790;29;20068;-92
2022/08/05 14:30:07;;;;;;;15.13;14.13;;;34.10;99.90;;;;;;4850650;29;20058;-91
2022/08/05 14:32:34;;;;;;;14.82;13.93;;;34.00;99.90;;;;;;4850776;29;20041;-93
2022/08/05 14:35:01;;;;;;;14.73;13.70;;;34.20;99.90;;;;;;4850344;29;20066;-94
2022/08/05 14:37:27;;;;;;;15.05;13.93;;;34.20;99.90;;;;;;4851563;29;20478;-92
2022/08/05 14:39:54;;;;;;;14.98;13.75;;;34.50;99.90;;;;;;4850478;29;20032;-92
2022/08/05 14:42:21;;;;;;;15.27;14.10;;;34.40;99.90;;;;;;4850315;29;20047;-93
2022/08/05 14:44:48;;;;;;;14.63;13.63;;;34.20;99.90;;;;;;4850570;29;20029;-92
2022/08/05 14:47:14;;;;;;;15.43;14.43;;;34.10;99.90;;;;;;4850494;29;20037;-93
2022/08/05 14:49:53;;;;;;;15.52;14.52;;;34.20;99.90;;;;;;4850570;29;20081;-92
2022/08/05 14:52:20;;;;;;;15.30;14.30;;;34.40;99.90;;;;;;4850424;29;20033;-94
2022/08/05 14:54:46;;;;;;;15.50;14.50;;;34.50;99.90;;;;;;4850219;29;20029;-93
2022/08/05 14:57:13;;;;;;;15.55;14.57;;;34.40;99.90;;;;;;4851089;29;20033;-92
2022/08/05 14:59:39;;;;;;;22.07;14.57;;;34.20;99.90;;;;;;4851395;29;20036;-92
2022/08/05 15:02:15;;;;;;;17.65;16.27;;;34.20;99.90;;;;;;4851179;29;20061;-95
2022/08/05 15:04:42;;;;;;;16.33;15.20;;;34.00;99.90;;;;;;4850616;29;20041;-94
2022/08/05 15:07:18;;;;;;;15.75;14.75;;;34.10;99.90;;;;;;4854965;29;20040;-93
2022/08/05 15:10:09;;;;;;;16.52;15.23;;;34.00;99.90;;;;;;4853820;29;20033;-94
2022/08/05 15:12:36;;;;;;;15.27;14.15;;;33.90;99.90;;;;;;4855119;29;20061;-94
2022/08/05 15:18:02;;;;;;;14.52;13.57;;;33.90;99.90;;;;;;5052169;23;20060;-93
2022/08/05 15:20:48;;;;;;;16.13;14.93;;;34.10;99.90;;;;;;4889727;29;20040;-93
2022/08/05 15:43:55;;;;;;;;;;;;;;;;;;;;;
2022/08/05 15:58:35;;;;;;;14.98;13.93;;;33.50;99.90;;;;;;5619162;23;20048;-93
2022/08/05 16:01:02;;;;;;;14.57;13.45;;;33.40;99.90;;;;;;4901855;29;20417;-93
2022/08/05 16:03:29;;;;;;;15.27;14.25;;;33.30;99.90;;;;;;4901974;29;20035;-94
2022/08/05 16:06:02;;;;;;;14.25;13.43;;;33.30;99.90;;;;;;4902064;29;20090;-95
2022/08/05 16:08:28;;;;;;;14.00;13.00;;;33.20;99.90;;;;;;4909512;23;20060;-94
2022/08/05 16:10:55;;;;;;;14.18;13.18;;;33.20;99.90;;;;;;4882028;29;20040;-94
2022/08/05 16:13:25;;;;;;;14.43;13.40;;;33.20;99.90;;;;;;4901741;29;20036;-93
2022/08/05 16:15:52;;;;;;;13.18;12.27;;;33.20;99.90;;;;;;4902027;29;20055;-95
2022/08/05 16:18:19;;;;;;;14.20;13.20;;;33.10;99.90;;;;;;4902062;29;20031;-93
2022/08/05 16:20:45;;;;;;;13.93;13.13;;;33.10;99.90;;;;;;4902057;29;20051;-93
2022/08/05 16:23:12;;;;;;;13.68;12.88;;;33.10;99.90;;;;;;4901946;29;20070;-93
2022/08/05 16:25:39;;;;;;;13.50;12.60;;;32.90;99.90;;;;;;4901988;29;20032;-94
2022/08/05 16:28:15;;;;;;;14.60;13.70;;;32.90;99.90;;;;;;4902468;29;20032;-93
2022/08/05 16:30:51;;;;;;;14.38;13.57;;;33.00;99.90;;;;;;4902233;29;20030;-94
2022/08/05 16:33:21;;;;;;;14.00;13.20;;;32.90;99.90;;;;;;4906565;29;20032;-94
2022/08/05 16:35:51;;;;;;;14.02;13.10;;;32.80;99.90;;;;;;4906415;29;20024;-93
2022/08/05 16:38:17;;;;;;;14.18;13.38;;;32.70;99.90;;;;;;4905418;29;20040;-93
2022/08/05 16:40:44;;;;;;;14.95;13.90;;;32.80;99.90;;;;;;4903682;29;20505;-94
2022/08/05 16:43:21;;;;;;;13.55;12.75;;;32.90;99.90;;;;;;4903907;29;20486;-93
2022/08/05 16:45:54;;;;;;;13.80;13.00;;;32.80;99.90;;;;;;4904414;29;20059;-93
2022/08/05 16:48:28;;;;;;;14.60;13.70;;;32.80;99.90;;;;;;4904529;29;20032;-93
2022/08/05 16:51:02;;;;;;;13.98;13.00;;;32.70;99.90;;;;;;4905373;29;20047;-95
2022/08/05 16:53:38;;;;;;;13.33;12.40;;;32.70;99.90;;;;;;4906042;29;20028;-93
2022/08/05 16:56:17;;;;;;;13.55;12.50;;;32.50;99.90;;;;;;4915187;29;20291;-93
2022/08/05 16:58:44;;;;;;;13.40;12.60;;;32.40;99.90;;;;;;4896149;29;20028;-92
2022/08/05 17:01:11;;;;;;;13.32;12.43;;;32.30;99.90;;;;;;4888165;29;20040;-93
2022/08/05 17:03:46;;;;;;;13.00;12.05;;;32.30;99.90;;;;;;4901972;29;20032;-93